Time;durP1;ratioP1;P1;durP2;ratioP2;P2;SDS_P1;SDS_P2;PMS_P1;PMS_P2;Temp;Humidity;BMP_temperature;BMP_pressure;BME280_temperature;BME280_humidity;BME280_pressure;Samples;Min_cycle;Max_cycle;Signal;HPM_P1;HPM_P2
2023/08/10 00:02:13;;;;;;;2.40;1.60;;;;;;;-143.21;48.09;71439.66;5070101;28;20688;-82
2023/08/10 00:04:42;;;;;;;2.47;1.80;;;;;;;-143.21;48.43;71447.59;5069604;28;20216;-82
2023/08/10 00:07:09;;;;;;;3.45;1.60;;;;;;;-143.21;48.50;71449.56;5069981;28;20715;-82
2023/08/10 00:09:35;;;;;;;2.08;1.85;;;;;;;-143.21;48.97;71457.50;5069965;28;20702;-83
2023/08/10 00:12:02;;;;;;;3.75;2.00;;;;;;;-143.21;49.13;71459.47;5070114;28;20197;-82
2023/08/10 00:14:29;;;;;;;1.98;1.77;;;;;;;-143.21;49.29;71461.47;5069812;28;20205;-82
2023/08/10 00:16:56;;;;;;;2.28;1.60;;;;;;;-143.21;49.34;71445.59;5069963;28;20652;-81
2023/08/10 00:19:23;;;;;;;3.65;1.73;;;;;;;-143.21;49.08;71427.75;5068899;28;20209;-81
2023/08/10 00:21:51;;;;;;;3.63;1.67;;;;;;;-143.21;49.04;71421.81;5069087;28;20221;-82
2023/08/10 00:24:21;;;;;;;2.90;1.80;;;;;;;-143.21;48.94;71421.81;5066248;28;20202;-83
2023/08/10 00:26:48;;;;;;;3.20;1.83;;;;;;;-143.21;48.91;71427.75;5069898;28;20201;-84
2023/08/10 00:29:15;;;;;;;3.65;1.60;;;;;;;-143.21;48.87;71419.84;5069889;28;20859;-83
2023/08/10 00:31:41;;;;;;;2.97;1.73;;;;;;;-143.21;49.11;71423.78;5069602;28;20213;-82
2023/08/10 00:34:08;;;;;;;2.13;1.58;;;;;;;-143.21;49.21;71429.75;5069573;28;20217;-82
2023/08/10 00:36:37;;;;;;;3.08;1.70;;;;;;;-143.21;49.48;71433.72;5069394;28;20228;-82
2023/08/10 00:39:05;;;;;;;3.50;1.70;;;;;;;-143.21;49.79;71455.53;5069239;28;20236;-82
2023/08/10 00:41:32;;;;;;;3.50;1.75;;;;;;;-143.21;50.09;71459.47;5069331;28;20728;-82
2023/08/10 00:43:59;;;;;;;1.63;1.52;;;;;;;-143.21;49.98;71467.41;5069148;28;20205;-82
2023/08/10 00:46:27;;;;;;;4.53;1.80;;;;;;;-143.21;50.19;71461.47;5068991;28;20209;-82
2023/08/10 00:48:54;;;;;;;3.42;1.80;;;;;;;-143.21;50.04;71445.59;5068967;28;20228;-83
2023/08/10 00:51:21;;;;;;;2.13;1.50;;;;;;;-143.21;49.70;71425.78;5069074;28;20240;-82
2023/08/10 00:53:49;;;;;;;2.03;1.83;;;;;;;-143.21;49.42;71415.88;5066065;28;20691;-82
2023/08/10 00:56:18;;;;;;;2.00;1.60;;;;;;;-143.21;49.42;71403.97;5069768;28;20211;-82
2023/08/10 00:58:45;;;;;;;1.52;1.40;;;;;;;-143.21;49.08;71409.91;5068819;28;20212;-83
2023/08/10 01:01:12;;;;;;;5.03;1.85;;;;;;;-143.21;49.12;71409.91;5069259;28;20203;-82
2023/08/10 01:03:39;;;;;;;4.68;2.00;;;;;;;-143.21;49.50;71431.72;5068828;28;20210;-82
2023/08/10 01:06:13;;;;;;;2.67;1.67;;;;;;;-143.21;49.58;71447.59;5068416;28;20664;-82
2023/08/10 01:08:46;;;;;;;3.47;1.80;;;;;;;-143.21;49.77;71459.47;5068269;28;20201;-82
2023/08/10 01:11:25;;;;;;;3.10;1.80;;;;;;;-143.21;50.02;71471.38;5068934;28;20202;-82
2023/08/10 01:14:04;;;;;;;4.35;1.73;;;;;;;-143.21;50.41;71485.25;5065900;28;20209;-83
2023/08/10 01:16:34;;;;;;;2.50;1.52;;;;;;;-143.21;50.65;71491.22;5068203;28;20247;-82
2023/08/10 01:19:02;;;;;;;4.45;1.70;;;;;;;-143.21;50.91;71481.28;5069033;28;20206;-82
2023/08/10 01:21:37;;;;;;;3.33;1.83;;;;;;;-143.21;50.29;71469.41;5068803;28;20270;-82
2023/08/10 01:24:16;;;;;;;3.05;1.70;;;;;;;-143.21;49.71;71455.53;5068315;28;20196;-83
2023/08/10 01:26:44;;;;;;;1.85;1.63;;;;;;;-143.21;50.05;71461.47;5071622;28;20208;-84
2023/08/10 01:29:12;;;;;;;1.90;1.70;;;;;;;-143.21;49.81;71467.41;5068195;28;20715;-82
2023/08/10 01:31:38;;;;;;;3.83;1.80;;;;;;;-143.21;49.83;71471.38;5067910;28;20220;-82
2023/08/10 01:34:05;;;;;;;1.60;1.48;;;;;;;-143.21;49.66;71477.34;5068833;28;20212;-85
2023/08/10 01:36:33;;;;;;;1.80;1.70;;;;;;;-143.21;49.94;71479.31;5068457;28;20596;-85
2023/08/10 01:39:00;;;;;;;1.92;1.80;;;;;;;-143.21;50.38;71495.19;5067676;28;20301;-84
2023/08/10 01:41:27;;;;;;;3.75;1.98;;;;;;;-143.21;50.47;71499.13;5068368;28;20288;-82
2023/08/10 01:43:55;;;;;;;5.30;1.70;;;;;;;-143.21;50.64;71505.09;5068691;28;20244;-82
2023/08/10 01:46:24;;;;;;;2.33;1.73;;;;;;;-143.21;50.60;71515.00;5068940;28;20216;-83
2023/08/10 01:48:53;;;;;;;1.60;1.50;;;;;;;-143.21;51.07;71530.88;5068789;28;20647;-82
2023/08/10 01:51:23;;;;;;;1.88;1.70;;;;;;;-143.21;51.02;71528.88;5068852;28;20614;-83
2023/08/10 01:53:51;;;;;;;2.50;1.70;;;;;;;-143.21;51.25;71515.00;5065790;28;20658;-83
2023/08/10 01:56:21;;;;;;;3.25;1.88;;;;;;;-143.21;50.94;71487.25;5064980;28;20213;-82
2023/08/10 01:58:48;;;;;;;1.70;1.42;;;;;;;-143.21;50.18;71475.34;5068914;28;20228;-83
2023/08/10 02:01:16;;;;;;;2.22;1.60;;;;;;;-143.21;50.52;71471.38;5068618;28;20205;-83
2023/08/10 02:03:43;;;;;;;2.75;1.55;;;;;;;-143.21;50.13;71471.38;5067789;28;20205;-82
2023/08/10 02:06:10;;;;;;;1.90;1.80;;;;;;;-143.21;50.29;71481.28;5068722;28;20220;-83
2023/08/10 02:08:37;;;;;;;3.50;1.70;;;;;;;-143.21;50.49;71491.22;5067977;28;20209;-81
2023/08/10 02:11:03;;;;;;;6.22;1.70;;;;;;;-143.21;50.78;71507.06;5068054;28;20300;-82
2023/08/10 02:13:30;;;;;;;3.03;1.85;;;;;;;-143.21;50.81;71516.97;5067970;28;20216;-81
2023/08/10 02:15:57;;;;;;;2.50;1.70;;;;;;;-143.21;50.98;71518.97;5068499;28;20197;-80
2023/08/10 02:18:25;;;;;;;2.20;1.70;;;;;;;-143.21;50.98;71530.88;5067729;28;20212;-81
2023/08/10 02:20:52;;;;;;;3.38;1.73;;;;;;;-143.21;51.34;71542.75;5067523;28;20202;-81
2023/08/10 02:23:19;;;;;;;2.15;1.80;;;;;;;-143.21;51.12;71548.72;5068249;28;20279;-80
2023/08/10 02:25:46;;;;;;;1.70;1.60;;;;;;;-143.21;51.50;71566.56;5068571;28;20205;-80
2023/08/10 02:28:14;;;;;;;4.68;1.80;;;;;;;-143.21;51.57;71560.59;5068048;28;20584;-80
2023/08/10 02:30:40;;;;;;;2.80;1.70;;;;;;;-143.21;51.41;71536.81;5067411;28;20225;-81
2023/08/10 02:33:07;;;;;;;2.60;1.80;;;;;;;-143.21;50.71;71530.88;5068068;28;20213;-81
2023/08/10 02:35:36;;;;;;;2.65;1.80;;;;;;;-143.21;50.57;71536.81;5067581;28;20209;-81
2023/08/10 02:38:02;;;;;;;4.82;1.83;;;;;;;-143.21;52.23;71554.66;5067632;28;20698;-81
2023/08/10 02:40:29;;;;;;;2.10;1.90;;;;;;;-143.21;53.52;71564.56;5067583;28;20220;-81
2023/08/10 02:42:56;;;;;;;4.47;1.90;;;;;;;-143.21;55.16;71570.53;5071703;28;20230;-81
2023/08/10 02:45:23;;;;;;;8.18;2.00;;;;;;;-143.21;56.71;71580.44;5072211;28;20202;-81
2023/08/10 02:47:50;;;;;;;4.25;2.42;;;;;;;-143.21;60.44;71588.38;5071917;28;20209;-81
2023/08/10 02:50:16;;;;;;;8.27;2.40;;;;;;;-143.21;58.28;71633.97;5068167;28;20237;-82
2023/08/10 02:52:44;;;;;;;3.75;2.58;;;;;;;-143.21;59.46;71661.72;5070955;28;20205;-82
2023/08/10 02:55:11;;;;;;;3.33;2.42;;;;;;;-143.21;59.85;71689.47;5071530;28;20205;-81
2023/08/10 02:57:38;;;;;;;7.38;2.25;;;;;;;-143.21;63.73;71711.28;5070357;28;20213;-82
2023/08/10 03:00:10;;;;;;;8.32;3.63;;;;;;;-143.21;66.58;71709.31;5071307;28;20205;-82
2023/08/10 03:02:39;;;;;;;7.30;3.30;;;;;;;-143.21;68.13;71715.25;5070815;28;20209;-83
2023/08/10 03:05:09;;;;;;;8.52;3.58;;;;;;;-143.21;70.03;71721.22;5070978;28;20676;-83
2023/08/10 03:07:36;;;;;;;6.43;3.42;;;;;;;-143.21;70.80;71717.25;5070987;28;20198;-83
2023/08/10 03:10:07;;;;;;;7.03;4.03;;;;;;;-143.21;71.86;71725.16;5071119;28;20249;-83
2023/08/10 03:12:33;;;;;;;7.47;3.58;;;;;;;-143.21;72.40;71723.19;5074477;28;20219;-83
2023/08/10 03:15:04;;;;;;;5.97;2.85;;;;;;;-143.21;72.62;71733.09;5071365;28;20211;-83
2023/08/10 03:17:31;;;;;;;6.70;3.28;;;;;;;-143.21;72.85;71733.09;5070881;28;20210;-84
2023/08/10 03:19:58;;;;;;;5.22;3.00;;;;;;;-143.21;73.44;71748.97;5071446;28;20205;-84
2023/08/10 03:22:35;;;;;;;5.03;3.17;;;;;;;-143.21;73.25;71748.97;5070836;28;20283;-84
2023/08/10 03:25:05;;;;;;;4.40;3.10;;;;;;;-143.21;71.53;71756.91;5070147;28;20205;-84
2023/08/10 03:27:32;;;;;;;5.72;3.10;;;;;;;-143.21;71.75;71782.69;5070431;28;20201;-81
2023/08/10 03:29:59;;;;;;;5.75;3.60;;;;;;;-143.21;75.34;71786.63;5071001;28;20233;-80
2023/08/10 03:32:25;;;;;;;5.05;3.30;;;;;;;-143.21;75.55;71792.59;5070116;28;20288;-81
2023/08/10 03:34:52;;;;;;;5.55;3.50;;;;;;;-143.21;76.21;71800.53;5070820;28;20931;-81
2023/08/10 03:37:20;;;;;;;7.47;3.10;;;;;;;-143.21;76.06;71818.38;5071007;28;20275;-81
2023/08/10 03:39:46;;;;;;;5.35;3.53;;;;;;;-143.21;77.26;71818.38;5070162;28;20338;-81
2023/08/10 03:42:15;;;;;;;5.68;3.40;;;;;;;-143.21;77.64;71808.44;5070793;28;20201;-81
2023/08/10 03:44:41;;;;;;;4.07;3.17;;;;;;;-143.21;77.98;71812.41;5069985;28;20204;-81
2023/08/10 03:47:08;;;;;;;6.53;3.50;;;;;;;-143.21;77.32;71810.44;5070287;28;20213;-81
2023/08/10 03:49:35;;;;;;;6.55;3.30;;;;;;;-143.21;77.12;71818.38;5070105;28;20251;-80
2023/08/10 03:52:02;;;;;;;5.90;3.40;;;;;;;-143.21;76.66;71834.22;5070053;28;20267;-82
2023/08/10 03:54:31;;;;;;;5.68;3.65;;;;;;;-143.21;76.06;71836.22;5069220;28;20299;-83
2023/08/10 03:56:58;;;;;;;5.68;3.50;;;;;;;-143.21;76.54;71852.06;5070263;28;20835;-82
2023/08/10 03:59:26;;;;;;;4.15;3.55;;;;;;;-143.21;76.55;71848.09;5069896;28;20198;-82
2023/08/10 04:01:54;;;;;;;3.88;3.22;;;;;;;-143.21;76.23;71867.94;5070455;28;20205;-82
2023/08/10 04:04:20;;;;;;;6.63;4.60;;;;;;;-143.21;76.82;71883.81;5070834;28;20201;-83
2023/08/10 04:06:47;;;;;;;7.70;4.55;;;;;;;-143.21;77.74;71895.69;5070011;28;20197;-83
2023/08/10 04:09:14;;;;;;;9.02;4.97;;;;;;;-143.21;78.37;71903.63;5068773;28;20194;-83
2023/08/10 04:11:41;;;;;;;8.10;4.68;;;;;;;-143.21;79.21;71899.66;5068420;28;20244;-83
2023/08/10 04:14:12;;;;;;;7.50;5.25;;;;;;;-143.21;80.80;71887.78;5067834;28;20225;-83
2023/08/10 04:16:40;;;;;;;26.02;11.13;;;;;;;-143.21;80.92;71887.78;5066905;28;20209;-84
2023/08/10 04:19:07;;;;;;;21.00;10.10;;;;;;;-143.21;80.06;71893.72;5068492;28;20678;-84
2023/08/10 04:21:34;;;;;;;16.50;8.68;;;;;;;-143.21;79.75;71899.66;5068132;28;20197;-84
2023/08/10 04:24:01;;;;;;;14.18;8.40;;;;;;;-143.21;80.23;71895.69;5068595;28;20203;-84
2023/08/10 04:26:28;;;;;;;14.23;7.57;;;;;;;-143.21;78.89;71909.56;5067753;28;20232;-83
2023/08/10 04:28:54;;;;;;;16.15;7.68;;;;;;;-143.21;78.69;71949.25;5066376;28;20542;-83
2023/08/10 04:31:21;;;;;;;16.48;7.63;;;;;;;-143.21;80.52;71996.81;5067705;28;20229;-82
2023/08/10 04:33:49;;;;;;;11.80;6.30;;;;;;;-143.21;81.18;71994.84;5067266;28;20201;-82
2023/08/10 04:36:17;;;;;;;7.25;5.30;;;;;;;-143.21;80.60;71996.81;5064865;28;20198;-83
2023/08/10 04:38:44;;;;;;;7.63;5.00;;;;;;;-143.21;80.32;71994.84;5067742;28;20209;-83
2023/08/10 04:41:11;;;;;;;8.43;5.37;;;;;;;-143.21;80.47;71994.84;5067825;28;20692;-82
2023/08/10 04:43:38;;;;;;;8.53;5.43;;;;;;;-143.21;80.68;71998.81;5067691;28;20205;-82
2023/08/10 04:46:04;;;;;;;9.97;4.60;;;;;;;-143.21;80.43;71994.84;5067703;28;20201;-86
2023/08/10 04:48:31;;;;;;;9.73;4.80;;;;;;;-143.21;80.35;71990.88;5067736;28;20205;-84
2023/08/10 04:50:59;;;;;;;9.30;4.47;;;;;;;-143.21;80.60;71988.91;5067926;28;20243;-84
2023/08/10 04:53:26;;;;;;;9.50;4.13;;;;;;;-143.21;80.85;71982.94;5067569;28;20582;-83
2023/08/10 04:55:53;;;;;;;6.80;4.35;;;;;;;-143.21;80.79;71986.91;5067704;28;20212;-84
2023/08/10 04:58:20;;;;;;;7.63;4.63;;;;;;;-143.21;80.18;71980.97;5067402;28;20232;-84
2023/08/10 05:00:47;;;;;;;6.45;3.58;;;;;;;-143.21;79.76;72000.78;5067731;28;20209;-83
2023/08/10 05:03:15;;;;;;;7.07;4.63;;;;;;;-143.21;80.55;72008.72;5068020;28;20221;-84
2023/08/10 05:05:42;;;;;;;6.72;4.55;;;;;;;-143.21;81.71;72016.66;5066426;28;20602;-85
2023/08/10 05:08:11;;;;;;;8.90;5.00;;;;;;;-143.21;82.99;72024.59;5067274;28;20209;-83
2023/08/10 05:10:38;;;;;;;7.85;4.50;;;;;;;-143.21;84.12;72036.50;5067107;28;20225;-83
2023/08/10 05:13:05;;;;;;;5.20;4.33;;;;;;;-143.21;84.68;72042.44;5067550;28;20213;-84
2023/08/10 05:15:32;;;;;;;6.35;3.80;;;;;;;-143.21;85.24;72042.44;5067534;28;20205;-86
2023/08/10 05:17:59;;;;;;;6.75;4.43;;;;;;;-143.21;85.06;72040.44;5067520;28;20683;-87
2023/08/10 05:20:26;;;;;;;7.30;4.33;;;;;;;-143.21;85.38;72038.47;5067711;28;20212;-85
2023/08/10 05:22:53;;;;;;;5.87;4.40;;;;;;;-143.21;86.85;72000.78;5066718;28;20205;-84
2023/08/10 05:25:21;;;;;;;5.70;4.30;;;;;;;-143.21;86.77;71982.94;5068049;28;20198;-85
2023/08/10 05:27:48;;;;;;;7.33;4.80;;;;;;;-143.21;86.27;71971.06;5070022;28;20760;-82
2023/08/10 05:30:15;;;;;;;6.23;4.87;;;;;;;-143.21;86.09;71959.16;5068096;28;20204;-85
2023/08/10 05:32:43;;;;;;;8.82;4.75;;;;;;;-143.21;85.93;71963.13;5066076;28;20209;-87
2023/08/10 05:35:11;;;;;;;7.50;5.03;;;;;;;-143.21;85.25;71953.19;5067431;28;20235;-86
2023/08/10 05:37:39;;;;;;;16.65;14.65;;;;;;;-143.21;85.06;71945.28;5065935;28;20221;-85
2023/08/10 05:40:09;;;;;;;10.60;6.05;;;;;;;-143.21;84.94;71943.28;5067380;28;20201;-85
2023/08/10 05:42:38;;;;;;;8.23;5.55;;;;;;;-143.21;85.54;71935.34;5067041;28;20205;-87
2023/08/10 05:45:06;;;;;;;9.07;5.35;;;;;;;-143.21;85.86;71935.34;5068508;28;20279;-84
2023/08/10 05:47:33;;;;;;;9.98;5.18;;;;;;;-143.21;85.82;71943.28;5067454;28;20279;-87
2023/08/10 05:50:00;;;;;;;7.97;4.90;;;;;;;-143.21;84.73;71931.38;5067501;28;20644;-84
2023/08/10 05:52:27;;;;;;;5.55;4.30;;;;;;;-143.21;83.36;71933.38;5066687;28;20226;-85
2023/08/10 05:54:54;;;;;;;6.63;4.50;;;;;;;-143.21;82.91;71921.47;5067235;28;20289;-87
2023/08/10 05:57:21;;;;;;;7.18;4.90;;;;;;;-143.21;82.54;71927.44;5066972;28;20212;-82
2023/08/10 05:59:49;;;;;;;7.28;4.70;;;;;;;-143.21;82.89;71929.41;5063547;28;20201;-83
2023/08/10 06:02:16;;;;;;;6.38;4.68;;;;;;;-143.21;83.46;71933.38;5066952;28;20204;-86
2023/08/10 06:04:43;;;;;;;6.43;5.03;;;;;;;-143.21;83.75;71937.34;5067136;28;20680;-88
2023/08/10 06:07:10;;;;;;;9.27;4.70;;;;;;;-143.21;83.99;71959.16;5067920;28;20767;-84
2023/08/10 06:09:37;;;;;;;6.80;5.10;;;;;;;-143.21;84.62;71963.13;5066724;28;20209;-87
2023/08/10 06:12:06;;;;;;;7.03;4.40;;;;;;;-143.21;84.59;71984.94;5067115;28;20229;-89
2023/08/10 06:14:33;;;;;;;6.93;4.80;;;;;;;-143.21;85.04;71988.91;5066990;28;20668;-86
2023/08/10 06:17:01;;;;;;;6.20;4.93;;;;;;;-143.21;86.30;71977.00;5066865;28;20205;-85
2023/08/10 06:19:28;;;;;;;7.07;4.80;;;;;;;-143.21;86.20;71955.19;5064645;28;20208;-87
2023/08/10 06:21:55;;;;;;;7.70;5.00;;;;;;;-143.21;86.23;71955.19;5066684;28;20208;-86
2023/08/10 06:24:22;;;;;;;6.67;4.87;;;;;;;-143.21;84.99;71957.16;5066508;28;20794;-86
2023/08/10 06:26:50;;;;;;;11.93;5.18;;;;;;;-143.21;84.34;71961.13;5063119;28;20211;-84
2023/08/10 06:29:17;;;;;;;9.70;5.57;;;;;;;-143.21;84.62;71967.09;5066389;28;20201;-83
2023/08/10 06:31:44;;;;;;;11.43;5.55;;;;;;;-143.21;85.25;71984.94;5061393;28;20225;-84
2023/08/10 06:34:12;;;;;;;8.23;5.67;;;;;;;-143.21;85.78;71982.94;5065772;28;20217;-83
2023/08/10 06:36:39;;;;;;;8.20;5.25;;;;;;;-143.21;85.59;71982.94;5065210;28;20212;-85
2023/08/10 06:39:06;;;;;;;6.60;4.88;;;;;;;-143.21;85.55;71984.94;5064401;28;20197;-85
2023/08/10 06:41:34;;;;;;;7.28;5.30;;;;;;;-143.21;86.02;71988.91;5065975;28;20271;-85
2023/08/10 06:44:01;;;;;;;14.18;5.18;;;;;;;-143.21;85.58;71969.06;5065861;28;20208;-85
2023/08/10 06:46:28;;;;;;;8.10;5.15;;;;;;;-143.21;84.87;71959.16;5066255;28;20209;-87
2023/08/10 06:48:55;;;;;;;6.88;5.00;;;;;;;-143.21;84.37;71957.16;5067402;28;20205;-88
2023/08/10 06:51:28;;;;;;;6.85;5.00;;;;;;;-143.21;84.19;71955.19;5066605;28;20241;-90
2023/08/10 06:53:55;;;;;;;7.57;5.60;;;;;;;-143.21;84.44;71951.22;5064672;28;20209;-88
2023/08/10 06:56:27;;;;;;;8.38;4.95;;;;;;;-143.21;84.40;71953.19;5067274;28;20675;-89
2023/08/10 06:58:54;;;;;;;7.60;5.07;;;;;;;-143.21;84.74;71949.25;5066053;28;20203;-90
2023/08/10 07:01:21;;;;;;;5.35;4.45;;;;;;;-143.21;84.22;71951.22;5066705;28;20236;-90
2023/08/10 07:03:48;;;;;;;7.20;4.88;;;;;;;-143.21;84.14;71943.28;5067634;28;20201;-93
2023/08/10 07:06:20;;;;;;;9.02;5.03;;;;;;;-143.21;83.81;71939.31;5068586;28;20201;-90
2023/08/10 07:08:52;;;;;;;7.18;4.65;;;;;;;-143.21;82.75;71935.34;5069543;28;20213;-89
2023/08/10 07:11:20;;;;;;;4.70;4.20;;;;;;;-143.21;82.79;71925.44;5066494;28;20252;-89
2023/08/10 07:13:50;;;;;;;4.68;4.18;;;;;;;-143.21;82.19;71919.50;5061299;28;20251;-89
2023/08/10 07:16:36;;;;;;;6.78;4.30;;;;;;;-143.21;81.61;71913.53;5060667;28;20198;-90
2023/08/10 07:19:03;;;;;;;8.98;4.50;;;;;;;-143.21;81.46;71903.63;5063376;28;20202;-89
2023/08/10 07:21:39;;;;;;;7.53;4.80;;;;;;;-143.21;80.76;71883.81;5066332;28;20236;-89
2023/08/10 07:24:08;;;;;;;7.45;5.43;;;;;;;-143.21;80.96;71873.88;5065277;28;20208;-88
2023/08/10 07:26:35;;;;;;;7.68;5.63;;;;;;;-143.21;80.18;71862.00;5067395;28;20200;-88
2023/08/10 07:29:03;;;;;;;6.90;5.30;;;;;;;-143.21;79.32;71856.03;5069393;28;20289;-87
2023/08/10 07:31:31;;;;;;;9.15;5.53;;;;;;;-143.21;79.01;71840.19;5071682;28;20281;-88
2023/08/10 07:33:58;;;;;;;9.93;5.68;;;;;;;-143.21;78.47;71834.22;5072431;28;20201;-88
2023/08/10 07:36:26;;;;;;;6.80;5.30;;;;;;;-143.21;78.03;71824.31;5072198;28;20204;-89
2023/08/10 07:38:55;;;;;;;6.07;4.35;;;;;;;-143.21;78.11;71812.41;5071881;28;20205;-87
2023/08/10 07:41:24;;;;;;;6.25;4.78;;;;;;;-143.21;76.98;71804.47;5074416;28;20193;-89
2023/08/10 07:43:51;;;;;;;8.63;5.10;;;;;;;-143.21;76.26;71792.59;5068234;28;20202;-89
2023/08/10 07:46:18;;;;;;;7.18;5.65;;;;;;;-143.21;76.35;71788.63;5071315;28;20750;-89
2023/08/10 07:48:46;;;;;;;11.05;5.90;;;;;;;-143.21;76.33;71780.69;5057036;28;21463;-89
2023/08/10 07:51:13;;;;;;;9.25;5.78;;;;;;;-143.21;76.67;71774.75;5047631;28;20608;-89
2023/08/10 07:53:40;;;;;;;8.23;4.60;;;;;;;-143.21;77.40;71768.78;5068828;28;20209;-87
2023/08/10 07:56:07;;;;;;;6.05;4.65;;;;;;;-143.21;76.79;71754.91;5060406;28;20282;-83
2023/08/10 07:58:35;;;;;;;6.25;4.80;;;;;;;-143.21;76.76;71748.97;5068973;28;20201;-85
2023/08/10 08:01:02;;;;;;;6.28;4.75;;;;;;;-143.21;76.51;71739.06;5069442;28;20594;-85
2023/08/10 08:03:29;;;;;;;4.72;3.92;;;;;;;-143.21;75.66;71729.13;5069085;28;20196;-87
2023/08/10 08:05:56;;;;;;;5.57;4.10;;;;;;;-143.21;75.38;71717.25;5069183;28;20653;-87
2023/08/10 08:08:23;;;;;;;7.82;4.30;;;;;;;-143.21;75.25;71697.41;5068972;28;20190;-85
2023/08/10 08:10:50;;;;;;;5.93;4.00;;;;;;;-143.21;72.85;71687.50;5070398;28;20201;-86
2023/08/10 08:13:17;;;;;;;6.60;4.15;;;;;;;-143.21;72.67;71683.53;5071165;28;20197;-87
2023/08/10 08:15:45;;;;;;;6.60;4.63;;;;;;;-143.21;72.76;71675.59;5071295;28;20209;-88
2023/08/10 08:18:43;;;;;;;5.63;3.95;;;;;;;-143.21;72.26;71675.59;5070578;28;20194;-87
2023/08/10 08:21:10;;;;;;;4.38;3.65;;;;;;;-143.21;72.20;71687.50;5069653;28;20599;-88
2023/08/10 08:23:37;;;;;;;6.03;3.80;;;;;;;-143.21;69.37;71701.38;5068981;28;21005;-88
2023/08/10 08:26:09;;;;;;;4.15;3.60;;;;;;;-143.21;70.00;71725.16;5070137;28;20660;-90
2023/08/10 08:28:36;;;;;;;5.53;3.70;;;;;;;-143.21;72.14;71717.25;5071161;28;20663;-89
2023/08/10 08:31:15;;;;;;;5.50;3.40;;;;;;;-143.21;70.23;71717.25;5060820;28;20205;-89
2023/08/10 08:33:42;;;;;;;9.27;4.90;;;;;;;-143.21;70.27;71721.22;5058862;28;20558;-90
2023/08/10 08:36:09;;;;;;;9.23;3.60;;;;;;;-143.21;70.40;71715.25;5069447;28;20209;-91
2023/08/10 08:38:37;;;;;;;4.00;3.13;;;;;;;-143.21;68.65;71701.38;5069737;28;21092;-91
2023/08/10 08:41:08;;;;;;;6.30;3.30;;;;;;;-143.21;69.50;71689.47;5071586;28;20635;-93
2023/08/10 08:43:35;;;;;;;7.00;3.47;;;;;;;-143.21;68.68;71673.63;5071077;28;20580;-93
2023/08/10 08:46:05;;;;;;;3.00;2.70;;;;;;;-143.21;67.44;71661.72;5065582;28;20205;-93
2023/08/10 08:48:32;;;;;;;4.13;3.10;;;;;;;-143.21;65.99;71645.88;5066338;28;20197;-92
2023/08/10 08:50:59;;;;;;;4.82;3.20;;;;;;;-143.21;67.19;71630.00;5070201;28;20286;-92
2023/08/10 08:53:26;;;;;;;4.05;3.10;;;;;;;-143.21;66.71;71608.19;5070586;28;20209;-90
2023/08/10 08:55:53;;;;;;;2.70;2.50;;;;;;;-143.21;65.72;71592.31;5068720;28;20631;-89
2023/08/10 08:58:20;;;;;;;3.30;2.50;;;;;;;-143.21;64.04;71574.47;5067780;28;20201;-84
2023/08/10 09:00:49;;;;;;;7.72;2.90;;;;;;;-143.21;62.52;71566.56;5069183;28;20602;-88
2023/08/10 09:03:18;;;;;;;4.50;3.10;;;;;;;-143.21;61.50;71568.53;5070816;28;20197;-89
2023/08/10 09:05:46;;;;;;;4.32;2.75;;;;;;;-143.21;62.57;71562.59;5072343;28;20668;-91
2023/08/10 09:08:14;;;;;;;4.07;2.80;;;;;;;-143.21;63.12;71558.63;5070308;28;20197;-89
2023/08/10 09:10:41;;;;;;;3.00;2.70;;;;;;;-143.21;63.83;71550.69;5071109;28;20225;-90
2023/08/10 09:13:12;;;;;;;3.88;2.92;;;;;;;-143.21;62.88;71548.72;5072477;28;20764;-90
2023/08/10 09:15:39;;;;;;;4.63;3.17;;;;;;;-143.21;62.02;71572.50;5070796;28;20237;-90
2023/08/10 09:18:06;;;;;;;3.90;2.97;;;;;;;-143.21;63.44;71580.44;5070338;28;20679;-90
2023/08/10 09:20:35;;;;;;;7.25;3.08;;;;;;;-143.21;65.72;71588.38;5071295;28;20193;-89
2023/08/10 09:23:02;;;;;;;4.28;3.10;;;;;;;-143.21;62.94;71598.28;5073793;28;20675;-89
2023/08/10 09:25:37;;;;;;;4.07;3.38;;;;;;;-143.21;64.06;71602.25;5071481;28;20205;-90
2023/08/10 09:28:09;;;;;;;5.88;3.63;;;;;;;-143.21;64.20;71590.34;5076704;28;20205;-88
2023/08/10 09:30:36;;;;;;;4.88;3.20;;;;;;;-143.21;64.35;71572.50;5073161;28;20205;-89
2023/08/10 09:33:03;;;;;;;5.57;3.00;;;;;;;-143.21;63.83;71560.59;5071014;28;20228;-89
2023/08/10 09:35:31;;;;;;;5.05;3.15;;;;;;;-143.21;62.76;71542.75;5074120;28;20222;-89
2023/08/10 09:38:03;;;;;;;5.50;3.03;;;;;;;-143.21;61.81;71534.81;5069863;28;20277;-89
2023/08/10 09:40:30;;;;;;;3.78;3.15;;;;;;;-143.21;61.24;71524.91;5069334;28;20202;-89
2023/08/10 09:42:57;;;;;;;7.22;3.17;;;;;;;-143.21;60.78;71509.06;5069501;28;20189;-89
2023/08/10 09:45:24;;;;;;;4.70;3.28;;;;;;;-143.21;60.00;71499.13;5070534;28;20224;-89
2023/08/10 09:47:51;;;;;;;3.63;3.33;;;;;;;-143.21;59.85;71511.03;5069114;28;20669;-89
2023/08/10 09:50:18;;;;;;;5.88;3.30;;;;;;;-143.21;60.21;71511.03;5069161;28;20229;-89
2023/08/10 09:52:49;;;;;;;3.13;2.60;;;;;;;-143.21;61.39;71493.19;5068798;28;20221;-85
2023/08/10 09:55:17;;;;;;;3.25;2.58;;;;;;;-143.21;61.13;71485.25;5066075;28;20200;-88
2023/08/10 09:57:45;;;;;;;3.83;3.20;;;;;;;-143.21;59.87;71481.28;5069429;28;20209;-80
2023/08/10 10:00:18;;;;;;;3.90;2.80;;;;;;;-143.21;59.75;71481.28;5067947;28;20237;-85
2023/08/10 10:02:45;;;;;;;3.10;2.80;;;;;;;-143.21;59.24;71487.25;5070516;28;20219;-86
2023/08/10 10:05:12;;;;;;;4.90;3.28;;;;;;;-143.21;58.72;71501.13;5069008;28;20275;-87
2023/08/10 10:07:40;;;;;;;6.00;3.20;;;;;;;-143.21;60.03;71501.13;5068216;28;20206;-88
2023/08/10 10:10:12;;;;;;;4.45;3.20;;;;;;;-143.21;58.80;71507.06;5068977;28;20312;-90
2023/08/10 10:12:41;;;;;;;4.88;3.28;;;;;;;-143.21;58.66;71501.13;5069076;28;20239;-89
2023/08/10 10:15:11;;;;;;;3.28;2.70;;;;;;;-143.21;59.73;71481.28;5068743;28;20213;-89
2023/08/10 10:17:40;;;;;;;3.75;2.85;;;;;;;-143.21;60.21;71461.47;5069562;28;20205;-90
2023/08/10 10:20:11;;;;;;;2.65;2.45;;;;;;;-143.21;58.05;71435.69;5069240;28;20208;-89
2023/08/10 10:22:43;;;;;;;5.50;2.92;;;;;;;-143.21;58.42;71415.88;5068583;28;20672;-90
2023/08/10 10:25:15;;;;;;;4.93;3.00;;;;;;;-143.21;57.91;71394.06;5068619;28;20278;-90
2023/08/10 10:27:47;;;;;;;3.75;2.58;;;;;;;-143.21;57.91;71364.31;5067852;28;20229;-83
2023/08/10 10:30:24;;;;;;;4.22;2.67;;;;;;;-143.21;57.31;71330.63;5067658;28;20288;-83
2023/08/10 10:32:52;;;;;;;7.10;2.95;;;;;;;-143.21;57.26;71288.97;5067505;28;20232;-83
2023/08/10 10:35:23;;;;;;;5.68;2.92;;;;;;;-143.21;57.65;71265.19;5068167;28;20292;-84
2023/08/10 10:37:55;;;;;;;5.75;3.03;;;;;;;-143.21;55.35;71269.16;5064431;28;20211;-83
2023/08/10 10:40:24;;;;;;;5.60;2.70;;;;;;;-143.21;55.88;71277.09;5064718;28;20197;-82
2023/08/10 10:43:07;;;;;;;5.50;3.05;;;;;;;-143.21;56.63;71281.06;5064641;28;20201;-82
2023/08/10 10:45:36;;;;;;;4.80;2.70;;;;;;;-143.21;55.01;71288.97;5067066;28;20202;-80
2023/08/10 10:48:04;;;;;;;5.82;2.53;;;;;;;-143.21;54.83;71296.91;5067090;28;20285;-81
2023/08/10 10:50:31;;;;;;;5.18;3.05;;;;;;;-143.21;54.08;71310.78;5066659;28;20229;-83
2023/08/10 10:52:59;;;;;;;5.97;2.75;;;;;;;-143.21;54.33;71320.69;5067475;28;20220;-84
2023/08/10 10:55:27;;;;;;;6.15;2.88;;;;;;;-143.21;55.89;71324.66;5067478;28;20590;-82
2023/08/10 10:57:55;;;;;;;10.10;5.13;;;;;;;-143.21;56.08;71326.66;5066426;28;20583;-81
2023/08/10 11:00:24;;;;;;;3.92;2.80;;;;;;;-143.21;55.72;71324.66;5066052;28;20198;-81
2023/08/10 11:02:52;;;;;;;6.35;3.28;;;;;;;-143.21;54.41;71334.59;5065563;28;20201;-82
2023/08/10 11:05:20;;;;;;;12.15;5.55;;;;;;;-143.21;55.22;71332.59;5070909;28;20197;-85
2023/08/10 11:07:48;;;;;;;9.93;5.03;;;;;;;-143.21;55.84;71332.59;5070696;28;20875;-87
2023/08/10 11:10:16;;;;;;;10.68;5.25;;;;;;;-143.21;56.42;71336.56;5064745;28;20197;-87
2023/08/10 11:12:45;;;;;;;13.82;7.00;;;;;;;-143.21;56.42;71330.63;5072243;28;20273;-86
2023/08/10 11:15:13;;;;;;;5.07;2.83;;;;;;;-143.21;55.27;71324.66;5071461;28;20190;-87
2023/08/10 11:17:57;;;;;;;3.92;2.67;;;;;;;-143.21;54.21;71310.78;5072325;28;20589;-85
2023/08/10 11:20:25;;;;;;;3.33;2.33;;;;;;;-143.21;53.34;71296.91;5069237;28;20201;-84
2023/08/10 11:22:53;;;;;;;2.85;2.00;;;;;;;-143.21;53.32;71253.28;5070549;28;20270;-85